Air Resources Laboratory banner image
Air Resources Laboratory web site National Oceanic and Atmospheric Administration (NOAA)

ia metar


KADU 200555Z AUTO 00000KT 1 3/4SM -SN BKN005 OVC011 M04/M06 A2980 RMK AO2=
KAIO 200555Z AUTO 31006KT 3SM -UP SCT004 BKN013 OVC019 M04/M04 A2985 RMK AO2=
KALO 200554Z AUTO 35006KT 2SM BR OVC003 M01/M01 A2976 RMK AO2 SLP087 T10061006
 10017 21006 400331006 58008=
KAMW 200553Z AUTO 23003KT 5SM BR OVC003 M02/M03 A2981 RMK AO2 SLP102 I6000
 T10221028 11006 21022 400501022 58002=
KAWG 200555Z AUTO 28008KT 3SM BR OVC004 01/01 A2985 RMK AO2=
KAXA 200555Z AUTO 01008G14KT 2SM BR CLR M05/ A2980 RMK AO2 PWINO=
KBNW 200555Z AUTO 2 1/2SM BR OVC003 M03/M03 A2979 RMK AO2=
KBRL 200553Z AUTO 33003KT 2 1/2SM TSRA BR SCT005 BKN010 OVC025 04/03 A2983 RMK
 AO2 TSB48 SLP103 P0014 60099 T00440033 10156 20039 401780039 51020=
KCAV 200555Z AUTO 01010KT 10SM OVC004 M03/M03 A2978 RMK AO2 PWINO=
KCBF 200555Z AUTO 36005KT 2 1/2SM -RA SCT002 BKN009 OVC020 M05/M05 A2982 RMK
 AO2 P0004=
KCCY 200555Z AUTO 01009KT 1 3/4SM BR OVC004 M01/M01 A2977 RMK AO2=
KCID 200552Z AUTO 24006KT 1 1/2SM BR OVC002 01/01 A2980 RMK AO2 SLP098 60001
 T00060006 10067 20006 401000006 51011=
KCIN 200555Z AUTO 3SM UP OVC004 M05/M05 A2980 RMK AO2=
KCNC 200555Z AUTO 00000KT 9SM BKN005 OVC016 M02/M02 A2981 RMK AO2=
KCSQ 200555Z AUTO 02004KT 4SM BR OVC003 M03/M04 A2981 RMK AO2=
KCWI 200556Z AUTO 4SM RA BR 03/03 RMK AO2 RAE17B38 SLPNO P0002 6//// T00330033
 10122 20033 401220022 $=
KDBQ 200553Z AUTO 24003KT 5SM BR OVC004 01/01 A2978 RMK AO2 SLP095 60011
 T00110011 10033 20011 400390011 52013=
KDEH 200555Z AUTO 02004KT 1 1/4SM BR OVC002 01/01 A2976 RMK AO2=
KDNS 200555Z AUTO 02005KT 2 1/2SM -RA FEW002 SCT009 BKN013 M05/M05 A2983 RMK
 AO2=
KDSM 200554Z 31003KT 6SM -FZRA BR OVC003 M03/M03 A2981 RMK AO2 FZRAB50SNE04
 SLP103 OCNL LTGIC DSNT NW CB DSNT NW MOV NE P0000 60000 I1000 I6000 T10281033
 11006 21028 400831028
KDVN 200552Z AUTO 26006KT 5SM -RA BR SCT013 BKN021 OVC029 04/03 A2982 RMK AO2
 RAE0455B17 SLP097 P0003 60019 T00440033 10150 20044 401720039 51007=
KEBS 200555Z AUTO 36011KT 2SM BR OVC003 M03/M03 A2974 RMK AO2=
KEOK 200555Z AUTO 01006KT 3SM -RA BKN004 BKN008 OVC020 05/04 A2982 RMK AO2
 P0018=
KEST 200552Z AUTO 35013KT 1 3/4SM BR OVC003 M08/M08 A2983 RMK AO2 SLP124 I6003
 T10781083 11072 21083 410501083 58006=
KFFL 200555Z AUTO 28004KT 3SM BR OVC003 01/01 A2983 RMK AO2 PWINO=
KFSW 200555Z AUTO 30006KT 5SM -RA BKN013 OVC020 03/03 A2985 RMK AO2=
KHNR 200555Z AUTO 34003KT 2SM -RA BKN004 OVC010 M05/M05 A2986 RMK AO2=
KICL 200555Z AUTO 36005KT 4SM BR OVC006 M03/M03 A2985 RMK AO2=
KIKV 200555Z AUTO 30003KT 5SM BR OVC004 M02/M03 A2982 RMK AO2=
KIOW 200552Z AUTO 27006KT 9SM SCT005 OVC026 02/02 A2984 RMK AO2 SLP108 60006
 T00220022 10056 20022 401560022 50005 $=
KLRJ 200555Z AUTO 8SM -SN OVC008 M08/M09 A2984 RMK AO2=
KLWD 200553Z AUTO 04003KT 4SM BR OVC003 M02/M03 A2981 RMK AO2
 UPB0458E0459FZRAB0459E12 SLP104 P0001 60001 I1001 I6001 T10221028 10000 21022
 401391022 58000=
KMCW 200553Z AUTO 36008KT 10SM OVC004 M03/M04 A2981 RMK AO2 SLP105 I6006
 T10331044 11017 21033 400281033 58000=
KMIW 200553Z AUTO 00000KT 1 1/4SM BR OVC002 M01/M01 A2979 RMK AO2 SLP095 I1000
 I6000 T10061006 10011 21006 400391006 58002=
KMUT 200555Z AUTO 29005KT 5SM -RA FEW008 OVC016 03/02 A2984 RMK AO2 P0004=
KMXO 200555Z AUTO 25005KT 3SM BR OVC003 01/01 A2980 RMK AO2=
KOLZ 200555Z AUTO 26005KT M1/4SM FG OVC002 01/01 A2977 RMK AO2=
KORC 200555Z AUTO 01008KT 4SM -SN OVC007 M08/M08 A2981 RMK AO2=
KOTM 200553Z AUTO 32003KT 3SM UP BR OVC003 00/M01 A2982 RMK AO2 UPB38 SLP100
 P0001 60002 T00001011 10033 20000 401890000 50005=
KOXV 200555Z AUTO 00000KT 4SM +RA OVC004 M02/M02 A2979 RMK AO2 P0003=
KRDK 200555Z AUTO VRB03KT 10SM OVC009 M04/M04 A2985 RMK AO2=
KSDA 200555Z AUTO 35006KT 10SM M04/M04 A2984 RMK AO2=
KSHL 200555Z AUTO 4SM -SN OVC006 M09/M09 A2980 RMK AO2=
KSLB 200555Z AUTO 1 1/2SM -SN CLR M07/M08 A2979 RMK AO2=
KSPW 200553Z AUTO 01012KT 5SM -SN BR OVC006 M07/M09 A2982 RMK AO2
 UPB0457E30SNE0457B30 SLP118 6//// I6001 T10721089 11061 21072 410391072 58012
 PNO $=
KSUX 200552Z AUTO 01011KT 10SM OVC010 M08/M09 A2984 RMK AO2 PRESFR SLP122
 T10781089 11067 21078 410111078 58015 FZRANO $=
KTNU 200555Z AUTO 00000KT 3/4SM BR OVC003 M01/M01 A2980 RMK AO2=